Springlake, TX (79082)

9:29 AM CDT on July 31, 2014 (GMT -0500)
West Bedford SMB (KTXDIMMI4) Elev 3904 ft | 34.54 °N, 102.34 °W | Change Station

Current weather conditions updated 22 seconds ago

Overcast
Overcast
63.3 °F
Feels Like 63.3 °F
N
0.0
Wind Variable Wind from NW
Gusts 0.0 mph

Today is forecast to be nearly the same temperature as yesterday.

Today
High -- | Low -- °F
--% Chance of Precip.
Yesterday
High -- | Low -- °F
Precip. -- in
6:59 AM 8:51 PM
Waxing Crescent, 18% visible
Pressure 30.21 in
Visibility 10.0 miles
Clouds Overcast 1400 ft
Dew Point 58 °F
Humidity 82%
Rainfall 0.00 in
Snow Depth Not available.
UV 1 out of 12
Pollen 3.30 out of 12
Air Quality Not available.
Flu Activity Not available.
METAR KPVW 311415Z AUTO 03009KT 10SM OVC014 18/14 A3021 RMK AO2 T01780140

More Conditions Fewer Conditions

Pressure 30.21 in
Visibility 10.0 miles
Clouds Overcast 1400 ft
Dew Point 58 °F
Humidity 82%
Rainfall 0.00 in
Snow Depth Not available.
UV 1 out of 12
Pollen 3.30 out of 12
Air Quality Not available.
Flu Activity Not available.
METAR KPVW 311415Z AUTO 03009KT 10SM OVC014 18/14 A3021 RMK AO2 T01780140

More Conditions Fewer Conditions

10-Day Weather Forecast

Almanac

Astronomy

Jul. 31, 2014 Rise Set
Actual Time 6:59 AM CDT 8:51 PM CDT
Civil Twilight 6:31 AM CDT 9:18 PM CDT
Nautical Twilight 5:58 AM CDT 9:52 PM CDT
Astronomical Twilight 5:23 AM CDT 10:27 PM CDT
Moon 11:14 AM CDT 11:20 PM CDT
Length of Visible Light 14h 46m
Length of Day
13h 51m
Tomorrow will be 1m 35s shorter.
Waxing Crescent, 18% of the Moon is Illuminated
Today
Waxing Crescent
Aug 3
First Quarter
Aug 10
Full
Aug 17
Last Quarter
Aug 25
New

Today's Extremes

State Highs State Lows

Community

WunderPhotos

Upload Photos

1,739,330 photos uploaded!

Nearby

Snow Depth

Station Depth Elevation
No new snow has been reported.

Earthquake Activity

City Distance Mag. Time & Date
No recent earthquake activity has been reported nearby.
Minimum magnitude displayed is 2.5.

Coastal Water Temperatures

Place Temperature
No Stations Reporting

Nearby Weather Stations

Station Location Temp. Dew Point Humidity Wind Precip. Elev Updated Type
WT_Meso Olton 6S, Olton, TX 62 °F 57 °F 84% North  at  16 mph 0.00 in / hr 3565 ft 8:25 AM CDT MADIS
WT_Meso Amherst 1NE, Amherst, TX 63 °F 57 °F 83% North  at  12 mph 0.00 in / hr 3646 ft 8:25 AM CDT MADIS
WT_Meso Hart 3N, Hart, TX 62 °F 57 °F 84% North  at  10 mph 0.00 in / hr 3693 ft 8:25 AM CDT MADIS
West Bedford SMB, Dimmitt, TX 63.3 °F 58 °F 82% NW  at  0.0 mph 0.00 in / hr 3904 ft 9:29 AM CDT Rapid Fire
WT_Meso Dimmitt 2NE, Dimmitt, TX 59 °F 56 °F 90% North  at  11 mph 0.00 in / hr 3875 ft 8:25 AM CDT MADIS
WT_Meso Muleshoe 2S, Muleshoe, TX 62 °F 58 °F 86% North  at  9 mph 0.00 in / hr 3806 ft 8:25 AM CDT MADIS

Show More Stations Show Fewer Stations